Time;durP1;ratioP1;P1;durP2;ratioP2;P2;SDS_P1;SDS_P2;PMS_P1;PMS_P2;Temp;Humidity;BMP_temperature;BMP_pressure;BME280_temperature;BME280_humidity;BME280_pressure;Samples;Min_cycle;Max_cycle;Signal;HPM_P1;HPM_P2
2022/04/26 03:37:46;;;;;;;10.27;5.60;;;;;;;;;;4720084;30;20114;-88
2022/04/26 03:40:12;;;;;;;12.13;5.10;;;;;;;;;;4734523;30;20109;-89
2022/04/26 03:42:38;;;;;;;15.00;5.75;;;;;;;;;;4705275;30;20091;-89
2022/04/26 03:45:05;;;;;;;5.95;4.15;;;;;;;;;;4705489;30;20045;-87
2022/04/26 03:47:31;;;;;;;13.55;5.22;;;;;;;;;;4705086;30;20136;-88
2022/04/26 03:49:57;;;;;;;10.48;5.40;;;;;;;;;;4734186;30;20092;-87
2022/04/26 03:52:23;;;;;;;7.90;5.13;;;;;;;;;;4734366;30;20057;-87
2022/04/26 03:54:49;;;;;;;7.10;4.50;;;;;;;;;;4704984;30;20074;-87
2022/04/26 03:57:15;;;;;;;12.55;5.53;;;;;;;;;;4705302;30;20044;-86
2022/04/26 03:59:41;;;;;;;12.32;6.40;;;;;;;;;;4705132;30;20088;-87
2022/04/26 04:02:08;;;;;;;11.05;5.03;;;;;;;;;;4734312;30;20060;-89
2022/04/26 04:04:34;;;;;;;16.63;5.63;;;;;;;;;;4705184;30;20092;-87
2022/04/26 04:07:00;;;;;;;12.65;4.85;;;;;;;;;;4705218;30;20555;-89
2022/04/26 04:09:26;;;;;;;11.13;4.70;;;;;;;;;;4733962;30;20476;-87
2022/04/26 04:11:52;;;;;;;14.60;5.20;;;;;;;;;;4735458;30;20060;-88
2022/04/26 04:14:18;;;;;;;11.23;4.57;;;;;;;;;;4705555;30;20052;-87
2022/04/26 04:16:44;;;;;;;7.70;4.72;;;;;;;;;;4735453;30;20506;-87
2022/04/26 04:19:20;;;;;;;9.48;5.90;;;;;;;;;;4735693;30;20518;-87
2022/04/26 04:21:47;;;;;;;9.77;4.97;;;;;;;;;;4734912;30;20537;-87
2022/04/26 04:24:17;;;;;;;14.15;5.70;;;;;;;;;;4705658;30;20055;-89
2022/04/26 04:26:43;;;;;;;17.48;6.05;;;;;;;;;;4736120;30;20057;-86
2022/04/26 04:29:09;;;;;;;12.50;5.45;;;;;;;;;;4734995;30;20102;-87
2022/04/26 04:31:35;;;;;;;13.55;6.07;;;;;;;;;;4733805;30;20059;-88
2022/04/26 04:34:02;;;;;;;17.63;6.35;;;;;;;;;;4735201;30;20053;-86
2022/04/26 04:36:28;;;;;;;8.45;5.18;;;;;;;;;;4735204;30;20106;-87
2022/04/26 04:38:55;;;;;;;13.05;5.47;;;;;;;;;;4719728;30;20513;-87
2022/04/26 04:41:21;;;;;;;9.38;5.53;;;;;;;;;;4736774;30;20053;-89
2022/04/26 04:43:47;;;;;;;11.70;5.63;;;;;;;;;;4737246;30;20510;-89
2022/04/26 04:46:13;;;;;;;8.57;5.57;;;;;;;;;;4737500;30;20052;-89
2022/04/26 04:48:39;;;;;;;13.52;5.25;;;;;;;;;;4707879;30;20069;-89
2022/04/26 04:51:05;;;;;;;7.85;4.80;;;;;;;;;;4736928;30;20139;-88
2022/04/26 04:53:31;;;;;;;9.90;5.32;;;;;;;;;;4737595;30;20139;-88
2022/04/26 04:55:57;;;;;;;9.48;5.40;;;;;;;;;;4707960;30;20554;-89
2022/04/26 04:58:25;;;;;;;11.95;5.45;;;;;;;;;;4736805;30;20139;-89
2022/04/26 05:00:52;;;;;;;13.43;5.57;;;;;;;;;;4708080;30;20516;-88
2022/04/26 05:03:18;;;;;;;10.35;5.78;;;;;;;;;;4708364;30;20057;-88
2022/04/26 05:05:44;;;;;;;10.63;5.15;;;;;;;;;;4707584;30;20087;-88
2022/04/26 05:08:10;;;;;;;17.20;4.85;;;;;;;;;;4736430;30;20064;-88
2022/04/26 05:10:37;;;;;;;12.50;5.20;;;;;;;;;;4707641;30;20052;-89
2022/04/26 05:13:03;;;;;;;11.88;4.88;;;;;;;;;;4707593;30;20419;-88
2022/04/26 05:15:30;;;;;;;9.02;5.18;;;;;;;;;;4707258;30;20528;-89
2022/04/26 05:17:56;;;;;;;13.75;5.88;;;;;;;;;;4736833;30;20045;-89
2022/04/26 05:20:22;;;;;;;9.15;5.03;;;;;;;;;;4737891;30;20132;-91
2022/04/26 05:25:40;;;;;;;9.18;5.55;;;;;;;;;;4722028;30;20056;-89
2022/04/26 05:28:07;;;;;;;13.93;5.82;;;;;;;;;;4736453;30;20419;-89
2022/04/26 05:30:33;;;;;;;9.27;5.75;;;;;;;;;;4707301;30;20055;-89
2022/04/26 05:32:59;;;;;;;10.77;5.40;;;;;;;;;;4707337;30;20135;-89
2022/04/26 05:35:25;;;;;;;13.45;5.22;;;;;;;;;;4736488;30;20052;-90
2022/04/26 05:37:51;;;;;;;7.93;5.63;;;;;;;;;;4707833;30;20475;-88
2022/04/26 05:40:17;;;;;;;8.75;5.35;;;;;;;;;;4707339;30;20423;-89
2022/04/26 05:42:43;;;;;;;20.25;6.20;;;;;;;;;;4706969;30;20054;-87
2022/04/26 05:45:09;;;;;;;9.75;5.45;;;;;;;;;;4706940;30;20056;-87
2022/04/26 05:47:40;;;;;;;9.48;4.82;;;;;;;;;;4736309;30;20056;-89
2022/04/26 05:50:07;;;;;;;10.63;5.20;;;;;;;;;;4706947;30;20061;-88
2022/04/26 05:52:33;;;;;;;11.55;5.10;;;;;;;;;;4705909;30;20057;-90
2022/04/26 05:55:00;;;;;;;10.63;4.80;;;;;;;;;;4706736;30;20056;-89
2022/04/26 05:57:27;;;;;;;12.43;5.32;;;;;;;;;;4736405;30;20053;-88
2022/04/26 05:59:53;;;;;;;8.45;4.70;;;;;;;;;;4706629;30;20063;-90
2022/04/26 06:02:19;;;;;;;15.20;5.38;;;;;;;;;;4706608;30;20061;-89
2022/04/26 06:04:45;;;;;;;8.63;6.03;;;;;;;;;;4737105;30;20060;-88
2022/04/26 06:07:11;;;;;;;8.38;5.30;;;;;;;;;;4736953;30;20408;-90
2022/04/26 06:09:38;;;;;;;8.40;4.50;;;;;;;;;;4736500;30;20071;-89
2022/04/26 06:12:05;;;;;;;8.13;4.95;;;;;;;;;;4736884;30;20052;-90
2022/04/26 06:14:31;;;;;;;12.60;4.50;;;;;;;;;;4706402;30;20511;-87
2022/04/26 06:16:57;;;;;;;10.45;5.15;;;;;;;;;;4706411;30;20503;-87
2022/04/26 06:19:23;;;;;;;9.88;4.22;;;;;;;;;;4708171;30;20052;-88
2022/04/26 06:21:49;;;;;;;7.78;4.50;;;;;;;;;;4722270;30;20449;-91
2022/04/26 06:24:15;;;;;;;9.43;4.97;;;;;;;;;;4707091;30;20095;-90
2022/04/26 06:26:41;;;;;;;12.20;5.38;;;;;;;;;;4736791;30;20081;-90
2022/04/26 06:29:07;;;;;;;5.20;4.32;;;;;;;;;;4706341;30;20056;-90
2022/04/26 06:31:33;;;;;;;14.13;5.05;;;;;;;;;;4706206;30;20056;-90
2022/04/26 06:33:59;;;;;;;12.57;4.85;;;;;;;;;;4707441;30;20139;-88
2022/04/26 06:36:25;;;;;;;5.93;4.50;;;;;;;;;;4735473;30;20067;-87
2022/04/26 06:38:51;;;;;;;14.13;4.32;;;;;;;;;;4736190;30;20052;-90
2022/04/26 06:41:18;;;;;;;10.00;5.03;;;;;;;;;;4736608;30;20057;-90
2022/04/26 06:43:44;;;;;;;9.02;4.97;;;;;;;;;;4720387;30;20610;-90
2022/04/26 06:46:11;;;;;;;8.88;4.63;;;;;;;;;;4707473;30;20045;-90
2022/04/26 06:48:37;;;;;;;9.63;6.05;;;;;;;;;;4706226;30;20056;-89
2022/04/26 06:51:03;;;;;;;7.45;4.53;;;;;;;;;;4735094;30;20049;-90
2022/04/26 06:53:29;;;;;;;6.03;4.03;;;;;;;;;;4706332;30;20059;-90
2022/04/26 06:55:55;;;;;;;14.63;4.05;;;;;;;;;;4707019;30;20056;-89
2022/04/26 06:58:21;;;;;;;6.28;3.60;;;;;;;;;;4734787;30;20123;-92
2022/04/26 07:00:47;;;;;;;11.32;3.72;;;;;;;;;;4706219;30;20056;-89
2022/04/26 07:03:14;;;;;;;11.13;4.40;;;;;;;;;;4705731;30;20071;-91
2022/04/26 07:05:41;;;;;;;6.40;3.40;;;;;;;;;;4706179;30;20045;-91
2022/04/26 07:08:07;;;;;;;7.97;4.20;;;;;;;;;;4734824;30;20462;-87
2022/04/26 07:10:38;;;;;;;8.45;3.67;;;;;;;;;;4705881;30;20052;-87
2022/04/26 07:13:04;;;;;;;6.25;3.80;;;;;;;;;;4707106;30;20377;-89
2022/04/26 07:15:30;;;;;;;6.85;4.07;;;;;;;;;;4705663;30;20056;-89
2022/04/26 07:17:56;;;;;;;7.63;3.78;;;;;;;;;;4706025;30;20453;-90
2022/04/26 07:20:22;;;;;;;7.13;3.85;;;;;;;;;;4735543;30;20059;-91
2022/04/26 07:22:48;;;;;;;11.98;3.95;;;;;;;;;;4705522;30;20102;-86
2022/04/26 07:25:15;;;;;;;6.18;4.30;;;;;;;;;;4735582;30;20048;-86
2022/04/26 07:27:41;;;;;;;19.25;4.40;;;;;;;;;;4705509;30;20053;-86
2022/04/26 07:30:07;;;;;;;8.30;3.45;;;;;;;;;;4735615;30;20479;-86
2022/04/26 07:35:23;;;;;;;13.68;3.92;;;;;;;;;;4733787;30;20139;-87
2022/04/26 07:37:49;;;;;;;7.18;3.20;;;;;;;;;;4704668;30;20065;-89
2022/04/26 07:40:17;;;;;;;13.65;3.38;;;;;;;;;;4719249;30;20095;-90
2022/04/26 07:42:43;;;;;;;6.57;3.67;;;;;;;;;;4704492;30;20106;-91
2022/04/26 07:45:11;;;;;;;6.88;4.82;;;;;;;;;;4704810;30;20140;-87
2022/04/26 07:47:37;;;;;;;6.22;3.35;;;;;;;;;;4719273;30;20075;-87
2022/04/26 07:50:04;;;;;;;8.55;3.05;;;;;;;;;;4718888;30;20049;-88
2022/04/26 07:52:31;;;;;;;6.30;3.22;;;;;;;;;;4704471;30;20060;-89
2022/04/26 07:54:57;;;;;;;6.20;3.15;;;;;;;;;;4704086;30;20138;-88
2022/04/26 07:57:23;;;;;;;7.47;3.38;;;;;;;;;;4704408;30;20056;-86
2022/04/26 07:59:50;;;;;;;7.63;3.47;;;;;;;;;;4705076;30;20056;-89
2022/04/26 08:02:16;;;;;;;5.07;3.28;;;;;;;;;;4704602;30;20045;-90
2022/04/26 08:04:43;;;;;;;8.98;3.40;;;;;;;;;;4718932;30;20201;-89
2022/04/26 08:07:09;;;;;;;6.47;3.42;;;;;;;;;;4704537;30;20443;-90
2022/04/26 08:09:38;;;;;;;5.68;3.15;;;;;;;;;;4704079;30;20072;-89
2022/04/26 08:12:04;;;;;;;6.78;3.42;;;;;;;;;;4704718;30;20064;-87
2022/04/26 08:14:30;;;;;;;12.15;3.45;;;;;;;;;;4704873;30;20147;-86
2022/04/26 08:16:56;;;;;;;16.40;3.65;;;;;;;;;;4708401;30;20048;-87
2022/04/26 08:19:22;;;;;;;4.13;3.10;;;;;;;;;;4737475;30;20511;-89
2022/04/26 08:21:49;;;;;;;5.63;3.42;;;;;;;;;;4708575;30;20056;-90
2022/04/26 08:29:44;;;;;;;6.65;3.38;;;;;;;;;;4722888;30;20091;-86
2022/04/26 08:32:10;;;;;;;4.82;3.08;;;;;;;;;;4708218;30;20061;-89
2022/04/26 08:34:36;;;;;;;7.55;2.58;;;;;;;;;;4708503;30;20052;-87
2022/04/26 08:37:02;;;;;;;9.40;2.83;;;;;;;;;;4709730;30;20045;-89
2022/04/26 08:39:28;;;;;;;6.43;2.95;;;;;;;;;;4709024;30;20053;-87
2022/04/26 08:41:58;;;;;;;5.65;3.35;;;;;;;;;;4738905;30;20508;-90
2022/04/26 08:44:28;;;;;;;7.13;3.47;;;;;;;;;;4709583;30;20060;-90
2022/04/26 08:52:25;;;;;;;9.57;3.80;;;;;;;;;;4739766;30;20407;-90
2022/04/26 08:54:51;;;;;;;6.78;3.65;;;;;;;;;;4723864;30;20049;-90
2022/04/26 08:57:17;;;;;;;5.40;2.83;;;;;;;;;;4737591;30;20056;-88
2022/04/26 08:59:50;;;;;;;7.80;3.75;;;;;;;;;;4737642;30;20052;-86
2022/04/26 09:02:20;;;;;;;7.97;3.00;;;;;;;;;;4737899;30;20052;-89
2022/04/26 09:04:46;;;;;;;4.03;2.97;;;;;;;;;;4709030;30;20092;-89
2022/04/26 09:07:27;;;;;;;5.70;3.00;;;;;;;;;;4739213;30;20087;-89
2022/04/26 09:10:03;;;;;;;5.18;3.03;;;;;;;;;;4691458;30;20118;-91
2022/04/26 09:12:29;;;;;;;14.73;4.20;;;;;;;;;;4691602;30;20089;-89
2022/04/26 09:14:55;;;;;;;9.85;4.05;;;;;;;;;;4691368;30;20080;-87
2022/04/26 09:17:21;;;;;;;10.85;3.45;;;;;;;;;;4691819;30;20487;-89
2022/04/26 09:19:48;;;;;;;17.58;3.33;;;;;;;;;;4691820;30;20135;-90
2022/04/26 09:22:19;;;;;;;3.78;3.30;;;;;;;;;;4691696;30;20391;-90
2022/04/26 09:24:54;;;;;;;4.53;3.35;;;;;;;;;;4707987;30;20049;-91
2022/04/26 09:27:21;;;;;;;8.88;3.72;;;;;;;;;;4723429;30;20058;-89
2022/04/26 09:29:47;;;;;;;3.95;2.72;;;;;;;;;;4737663;30;20044;-89
2022/04/26 09:32:13;;;;;;;5.55;3.08;;;;;;;;;;4709569;30;20116;-87
2022/04/26 09:34:40;;;;;;;4.93;3.42;;;;;;;;;;4737350;30;20466;-89
2022/04/26 09:37:06;;;;;;;7.70;3.85;;;;;;;;;;4737620;30;20056;-89
2022/04/26 09:39:32;;;;;;;7.53;3.45;;;;;;;;;;4708629;30;20120;-90
2022/04/26 09:41:59;;;;;;;3.15;2.85;;;;;;;;;;4738989;30;20144;-90
2022/04/26 09:44:32;;;;;;;6.30;3.33;;;;;;;;;;4715134;30;20084;-88
2022/04/26 09:46:58;;;;;;;11.25;3.55;;;;;;;;;;4730004;30;20061;-89
2022/04/26 09:49:25;;;;;;;6.25;2.80;;;;;;;;;;4714043;30;20056;-87
2022/04/26 09:51:57;;;;;;;7.25;2.60;;;;;;;;;;4742166;30;20092;-87
2022/04/26 09:54:23;;;;;;;6.95;3.78;;;;;;;;;;4714624;30;20069;-90
2022/04/26 09:56:50;;;;;;;5.88;3.08;;;;;;;;;;4743989;30;20049;-89
2022/04/26 09:59:29;;;;;;;4.55;2.80;;;;;;;;;;4744373;30;20053;-87
2022/04/26 10:01:59;;;;;;;4.53;3.08;;;;;;;;;;4712478;30;20057;-91
2022/04/26 10:04:27;;;;;;;3.70;3.00;;;;;;;;;;4709181;30;20059;-89
2022/04/26 10:06:57;;;;;;;9.82;3.30;;;;;;;;;;4709142;30;20048;-90
2022/04/26 10:09:24;;;;;;;6.68;2.83;;;;;;;;;;4723879;30;20415;-89
2022/04/26 10:11:54;;;;;;;5.53;3.00;;;;;;;;;;4708740;30;20053;-89
2022/04/26 10:14:21;;;;;;;8.18;2.78;;;;;;;;;;4723687;30;20122;-91
2022/04/26 10:16:47;;;;;;;4.25;2.90;;;;;;;;;;4723377;30;20061;-91
2022/04/26 10:19:13;;;;;;;9.18;2.63;;;;;;;;;;4737501;30;20049;-90
2022/04/26 10:21:39;;;;;;;3.72;3.28;;;;;;;;;;4708076;30;20063;-90
2022/04/26 10:24:06;;;;;;;4.20;2.72;;;;;;;;;;4737469;30;20091;-89
2022/04/26 10:26:33;;;;;;;4.85;2.70;;;;;;;;;;4739777;30;20135;-89
2022/04/26 10:29:00;;;;;;;5.00;2.40;;;;;;;;;;4708655;30;20464;-88
2022/04/26 10:31:36;;;;;;;6.63;2.60;;;;;;;;;;4738061;30;20052;-89
2022/04/26 10:34:25;;;;;;;11.45;3.00;;;;;;;;;;4737919;30;20139;-89
2022/04/26 10:36:53;;;;;;;6.50;2.30;;;;;;;;;;4708283;30;20055;-89
2022/04/26 10:39:32;;;;;;;14.27;2.70;;;;;;;;;;4706998;30;20574;-89
2022/04/26 10:42:00;;;;;;;2.67;2.15;;;;;;;;;;4707920;30;20487;-89
2022/04/26 10:44:27;;;;;;;4.82;2.88;;;;;;;;;;4707534;30;20107;-88
2022/04/26 10:46:55;;;;;;;17.67;3.00;;;;;;;;;;4736709;30;20048;-89
2022/04/26 10:49:24;;;;;;;5.32;2.95;;;;;;;;;;4706915;30;20091;-91
2022/04/26 10:51:51;;;;;;;6.82;3.17;;;;;;;;;;4720925;30;20074;-89
2022/04/26 10:54:37;;;;;;;8.52;2.60;;;;;;;;;;4735473;30;20434;-89
2022/04/26 10:57:03;;;;;;;9.98;3.17;;;;;;;;;;4735896;30;20052;-88
2022/04/26 10:59:29;;;;;;;2.92;2.50;;;;;;;;;;4705852;30;20049;-89
2022/04/26 11:01:56;;;;;;;4.85;2.65;;;;;;;;;;4720318;30;20060;-89
2022/04/26 11:04:22;;;;;;;7.72;3.55;;;;;;;;;;4736755;30;20044;-89
2022/04/26 11:06:48;;;;;;;3.50;2.72;;;;;;;;;;4735410;30;20064;-88
2022/04/26 11:09:15;;;;;;;4.13;2.67;;;;;;;;;;4734632;30;20103;-87
2022/04/26 11:11:48;;;;;;;4.82;2.80;;;;;;;;;;4705586;30;20060;-88
2022/04/26 11:14:17;;;;;;;4.13;2.73;;;13.00;99.90;;;;;;4734965;30;20097;-87
2022/04/26 11:17:02;;;;;;;9.02;3.17;;;;;;;;;;4705706;30;20049;-90
2022/04/26 11:19:30;;;;;;;6.60;2.92;;;;;;;;;;4705492;30;20065;-90
2022/04/26 11:21:56;;;;;;;6.47;2.78;;;;;;;;;;4705857;30;20045;-87
2022/04/26 11:29:52;;;;;;;7.38;3.08;;;;;;;;;;4735924;30;20058;-88
2022/04/26 11:32:31;;;;;;;10.23;2.95;;;;;;;;;;4719856;30;20060;-88
2022/04/26 11:34:58;;;;;;;8.35;2.85;;;;;;;;;;4705416;30;20052;-88
2022/04/26 11:37:24;;;;;;;6.00;3.03;;;;;;;;;;4705221;30;20052;-88
2022/04/26 11:39:50;;;;;;;5.85;2.83;;;;;;;;;;4706819;30;20048;-87
2022/04/26 11:42:16;;;;;;;8.75;3.88;;;;;;;;;;4719911;30;20056;-89
2022/04/26 11:44:59;;;;;;;6.65;2.25;;;;;;;;;;4720193;30;20484;-89
2022/04/26 11:47:39;;;;;;;5.50;2.90;;;;;;;;;;4705115;30;20096;-88
2022/04/26 11:50:09;;;;;;;4.45;2.88;;;;;;;;;;4705202;30;20048;-88
2022/04/26 11:52:35;;;;;;;3.97;2.92;;;;;;;;;;4733868;30;20499;-89
2022/04/26 11:55:01;;;;;;;8.05;2.80;;;;;;;;;;4705603;30;20056;-88
2022/04/26 11:57:27;;;;;;;5.43;2.65;;;;;;;;;;4719928;30;20189;-88
2022/04/26 11:59:53;;;;;;;9.23;3.70;;;;;;;;;;4705069;30;20490;-89
2022/04/26 12:02:20;;;;;;;12.20;2.75;;;;;;;;;;4705405;30;20048;-89
2022/04/26 12:04:46;;;;;;;4.07;2.70;;;;;;;;;;4733953;30;20056;-88
2022/04/26 12:07:16;;;;;;;4.70;3.05;;;;;;;;;;4734478;30;20075;-89
2022/04/26 12:09:42;;;;;;;5.50;2.58;;;;;;;;;;4687771;30;20091;-88
2022/04/26 12:12:12;;;;;;;4.35;2.97;;;;;;;;;;4688521;30;20056;-87
2022/04/26 12:14:41;;;;;;;4.18;2.20;;;;;;;;;;4720530;30;20140;-88
2022/04/26 12:17:27;;;;;;;6.28;2.85;;;;;;;;;;4692371;30;20060;-87
2022/04/26 12:19:53;;;;;;;5.57;2.33;;;;;;;;;;4718734;30;20057;-88
2022/04/26 12:22:19;;;;;;;4.95;2.60;;;;;;;;;;4689533;30;20060;-89
2022/04/26 12:24:46;;;;;;;3.15;2.42;;;;;;;;;;4689758;30;20045;-88
2022/04/26 12:27:14;;;;;;;3.75;2.60;;;;;;;;;;4688438;30;20053;-89
2022/04/26 12:29:48;;;;;;;9.57;3.95;;;;;;;;;;4717869;30;20091;-88
2022/04/26 12:32:16;;;;;;;4.00;2.70;;;;;;;;;;4690641;30;20049;-88
2022/04/26 12:34:51;;;;;;;5.72;2.60;;;;;;;;;;4689326;30;20053;-89
2022/04/26 12:37:21;;;;;;;3.53;2.58;;;;;;;;;;4690628;30;20057;-88
2022/04/26 12:39:52;;;;;;;6.20;2.50;;;;;;;;;;4689248;30;20218;-89
2022/04/26 12:42:28;;;;;;;3.25;2.58;;;;;;;;;;4691036;30;20056;-89
2022/04/26 12:44:55;;;;;;;5.32;2.67;;;;;;;;;;4691096;30;20049;-89
2022/04/26 12:52:52;;;;;;;6.43;2.63;;;;;;;;;;4719056;30;20510;-88
2022/04/26 12:55:29;;;;;;;5.00;3.05;;;;;;;;;;4688493;30;20056;-88
2022/04/26 12:57:58;;;;;;;7.10;2.88;;;13.20;99.90;;;;;;4718325;30;20091;-89
2022/04/26 13:00:24;;;;;;;4.82;2.80;;;;;;;;;;4690206;30;20480;-89
2022/04/26 13:02:51;;;;;;;4.15;2.42;;;;;;;;;;4693641;30;20113;-89
2022/04/26 13:05:19;;;;;;;4.60;2.67;;;;;;;;;;4692600;30;20056;-88
2022/04/26 13:07:48;;;;;;;5.47;2.95;;;;;;;;;;4710370;30;20067;-89
2022/04/26 13:10:15;;;;;;;5.22;2.97;;;;;;;;;;4709808;30;20111;-88
2022/04/26 13:12:42;;;;;;;5.90;2.75;;;;;;;;;;4739033;30;20469;-88
2022/04/26 13:15:08;;;;;;;8.10;2.60;;;;;;;;;;4725662;30;20063;-87
2022/04/26 13:17:38;;;;;;;5.32;3.35;;;;;;;;;;4740066;30;20052;-88
2022/04/26 13:20:04;;;;;;;4.75;2.53;;;;;;;;;;4741963;30;20052;-89
2022/04/26 13:22:31;;;;;;;8.88;3.22;;;;;;;;;;4740787;30;20049;-88
2022/04/26 13:24:59;;;;;;;6.18;2.97;;;;;;;;;;4741979;30;20045;-88
2022/04/26 13:27:26;;;;;;;2.75;2.25;;;;;;;;;;4711360;30;20063;-86
2022/04/26 13:29:52;;;;;;;3.10;2.55;;;;;;;;;;4712574;30;20049;-89
2022/04/26 13:32:19;;;;;;;4.43;2.53;;;;;;;;;;4739998;30;20518;-88
2022/04/26 13:34:45;;;;;;;5.60;2.80;;;;;;;;;;4739828;30;20052;-91
2022/04/26 13:37:12;;;;;;;9.65;3.38;;;;;;;;;;4740787;30;20049;-88
2022/04/26 13:39:39;;;;;;;3.47;2.40;;;;;;;;;;4738534;30;20469;-88
2022/04/26 13:42:05;;;;;;;5.18;2.40;;;;;;;;;;4740994;30;20058;-88
2022/04/26 13:44:32;;;;;;;9.55;2.65;;;;;;;;;;4710738;30;20060;-87
2022/04/26 13:46:58;;;;;;;4.28;3.67;;;;;;;;;;4739516;30;20048;-88
2022/04/26 13:49:24;;;;;;;3.88;2.65;;;;;;;;;;4711370;30;20063;-89
2022/04/26 13:51:51;;;;;;;3.75;3.08;;;;;;;;;;4739291;30;20114;-88
2022/04/26 13:54:17;;;;;;;4.65;2.83;;;;;;;;;;4740047;30;20056;-87
2022/04/26 13:56:44;;;;;;;4.80;2.55;;;;;;;;;;4723560;30;20406;-87
2022/04/26 13:59:10;;;;;;;3.65;2.65;;;;;;;;;;4710035;30;20056;-87
2022/04/26 14:01:37;;;;;;;5.82;3.05;;;;;;;;;;4724488;30;20048;-88
2022/04/26 14:04:04;;;;;;;5.95;2.97;;;;;;;;;;4708889;30;20067;-88
2022/04/26 14:06:30;;;;;;;4.28;2.72;;;;;;;;;;4738008;30;20067;-88
2022/04/26 14:08:56;;;;;;;4.63;2.97;;;;;;;;;;4737655;30;20061;-87
2022/04/26 14:11:22;;;;;;;3.45;2.30;;;;;;;;;;4737964;30;20551;-87
2022/04/26 14:22:03;;;;;;;3.03;2.65;;;;;;;;;;4723536;30;20056;-87
2022/04/26 14:24:29;;;;;;;5.95;2.90;;;;;;;;;;4738444;30;20056;-88
2022/04/26 14:26:57;;;;;;;9.60;3.15;;;;;;;;;;4737410;30;20160;-87
2022/04/26 14:29:23;;;;;;;8.02;2.92;;;;;;;;;;4738628;30;20079;-88
2022/04/26 14:31:51;;;;;;;6.20;3.17;;;;;;;;;;4737752;30;20053;-89
2022/04/26 14:34:17;;;;;;;5.40;2.50;;;;;;;;;;4738040;30;20057;-88
2022/04/26 14:36:44;;;;;;;4.28;2.75;;;;;;;;;;4708499;30;20049;-87
2022/04/26 14:39:12;;;;;;;3.22;2.20;;;;;;;;;;4709207;30;20059;-89
2022/04/26 14:41:39;;;;;;;4.50;2.70;;;;;;;;;;4737546;30;20100;-89
2022/04/26 14:44:06;;;;;;;2.97;2.28;;;;;;;;;;4709823;30;20067;-89
2022/04/26 14:46:33;;;;;;;3.75;2.67;;;;;;;;;;4708184;30;20055;-91
2022/04/26 14:49:00;;;;;;;3.10;2.40;;;;;;;;;;4692947;30;20060;-89
2022/04/26 14:51:26;;;;;;;4.28;2.42;;;;;;;;;;4708765;30;20494;-91
2022/04/26 14:53:52;;;;;;;3.55;2.20;;;;;;;;;;4736757;30;20121;-90
2022/04/26 14:56:18;;;;;;;6.38;2.80;;;;;;;;;;4737633;30;20069;-89
2022/04/26 14:58:44;;;;;;;3.58;2.90;;;;;;;;;;4708251;30;20415;-89
2022/04/26 15:01:10;;;;;;;3.85;2.10;;;;;;;;;;4709457;30;20060;-91
2022/04/26 15:03:44;;;;;;;3.13;2.25;;;;;;;;;;4760741;24;20240;-91
2022/04/26 15:06:10;;;;;;;5.80;2.63;;;;;;;;;;4727230;30;20064;-90
2022/04/26 15:11:30;;;;;;;2.72;2.25;;;;;;;;;;4707741;30;20411;-89
2022/04/26 15:16:42;;;;;;;3.47;2.13;;;;;;;;;;4721951;30;20053;-88
2022/04/26 15:19:10;;;;;;;4.53;2.83;;;;;;;;;;4722257;30;20504;-88
2022/04/26 15:21:37;;;;;;;3.42;2.38;;;;;;;;;;4738385;30;20063;-89
2022/04/26 15:24:03;;;;;;;4.72;2.85;;;;;;;;;;4707122;30;20107;-89
2022/04/26 15:26:29;;;;;;;4.70;2.58;;;;;;;;;;4723374;30;20113;-89
2022/04/26 15:28:58;;;;;;;5.30;2.63;;;;;;;;;;4708614;30;20055;-89
2022/04/26 15:31:24;;;;;;;3.10;2.10;;;;;;;;;;4707302;30;20048;-89
2022/04/26 15:33:52;;;;;;;5.55;3.08;;;;;;;;;;4707262;30;20053;-89
2022/04/26 15:36:19;;;;;;;3.83;2.88;;;;;;;;;;4721762;30;20537;-88
2022/04/26 15:38:45;;;;;;;4.50;2.80;;;;;;;;;;4707729;30;20079;-90
2022/04/26 15:41:12;;;;;;;6.20;2.80;;;;;;;;;;4705706;30;20060;-90
2022/04/26 15:43:39;;;;;;;3.90;2.70;;;;;;;;;;4706970;30;20514;-89
2022/04/26 15:46:14;;;;;;;5.47;2.22;;;;;;;;;;4720702;30;20049;-89
2022/04/26 15:48:44;;;;;;;5.07;2.70;;;;;;;;;;4721532;30;20144;-90
2022/04/26 15:51:10;;;;;;;4.70;2.88;;;;;;;;;;4720662;30;20044;-90
2022/04/26 15:53:37;;;;;;;2.95;2.28;;;;;;;;;;4706703;30;20472;-89
2022/04/26 15:56:03;;;;;;;4.82;2.80;;;;;;;;;;4723137;30;20190;-89
2022/04/26 15:58:29;;;;;;;5.90;2.80;;;;;;;;;;4708413;30;20442;-89
2022/04/26 16:00:57;;;;;;;3.80;2.70;;;;;;;;;;4708591;30;20598;-90
2022/04/26 16:03:23;;;;;;;3.13;2.40;;;;;;;;;;4722486;30;20445;-90
2022/04/26 16:05:49;;;;;;;4.30;2.60;;;;;;;;;;4717886;30;20518;-89
2022/04/26 16:08:16;;;;;;;4.38;2.35;;;;;;;;;;4725933;30;20056;-89
2022/04/26 16:21:41;;;;;;;5.72;2.80;;;;;;;;;;4737637;30;20056;-90
2022/04/26 16:24:07;;;;;;;3.83;2.63;;;;;;;;;;4724440;30;20052;-90
2022/04/26 16:26:36;;;;;;;4.85;2.72;;;;;;;;;;4723829;30;20055;-91
2022/04/26 16:29:07;;;;;;;5.40;2.78;;;14.90;99.90;;;;;;4738035;30;20079;-91
2022/04/26 16:31:34;;;;;;;5.90;2.42;;;;;;;;;;4723904;30;20048;-90
2022/04/26 16:34:02;;;;;;;3.28;2.35;;;;;;;;;;4724967;30;20048;-91
2022/04/26 16:36:28;;;;;;;8.50;2.72;;;;;;;;;;4726195;30;20052;-92
2022/04/26 16:38:54;;;;;;;4.03;2.42;;;;;;;;;;4741276;30;20044;-91
2022/04/26 16:41:21;;;;;;;10.55;3.10;;;;;;;;;;4727857;30;20052;-92
2022/04/26 16:43:48;;;;;;;17.88;3.65;;;;;;;;;;4727244;30;20062;-91
2022/04/26 16:46:16;;;;;;;3.50;2.20;;;;;;;;;;4727428;30;20087;-91
2022/04/26 16:48:43;;;;;;;3.95;2.03;;;;;;;;;;4726592;30;20424;-90
2022/04/26 16:51:09;;;;;;;4.15;3.00;;;15.40;99.90;;;;;;4726725;30;20207;-90
2022/04/26 16:53:35;;;;;;;5.55;3.33;;;;;;;;;;4757132;30;20060;-89
2022/04/26 16:56:03;;;;;;;5.15;2.15;;;;;;;;;;4727771;30;20059;-89
2022/04/26 16:58:30;;;;;;;6.20;2.58;;;;;;;;;;4741732;30;20056;-90
2022/04/26 17:00:56;;;;;;;3.03;2.60;;;;;;;;;;4727235;30;20092;-91
2022/04/26 17:03:22;;;;;;;9.02;3.60;;;;;;;;;;4727479;30;20055;-92
2022/04/26 17:05:49;;;;;;;3.72;3.30;;;;;;;;;;4717498;30;20131;-90
2022/04/26 17:08:15;;;;;;;5.53;3.25;;;;;;;;;;4710340;30;20503;-90
2022/04/26 17:10:42;;;;;;;4.05;2.70;;;;;;;;;;4709938;30;20056;-92
2022/04/26 17:13:09;;;;;;;3.22;2.92;;;;;;;;;;4710280;30;20052;-90
2022/04/26 17:15:36;;;;;;;6.70;2.60;;;;;;;;;;4712128;30;20110;-93
2022/04/26 17:18:03;;;;;;;5.13;2.88;;;;;;;;;;4711676;30;20049;-92
2022/04/26 17:20:33;;;;;;;6.80;3.08;;;;;;;;;;4710366;30;20059;-92
2022/04/26 17:22:59;;;;;;;6.25;3.00;;;;;;;;;;4711543;30;20202;-91
2022/04/26 17:25:25;;;;;;;11.40;3.75;;;;;;;;;;4723545;30;20057;-91
2022/04/26 17:27:52;;;;;;;5.93;3.28;;;;;;;;;;4709666;30;20060;-91
2022/04/26 17:30:18;;;;;;;5.95;3.13;;;;;;;;;;4710139;30;20052;-91
2022/04/26 17:32:46;;;;;;;5.57;3.38;;;;;;;;;;4709399;30;20053;-91
2022/04/26 17:35:12;;;;;;;6.47;3.42;;;;;;;;;;4710217;30;20064;-91
2022/04/26 17:37:43;;;;;;;4.00;2.90;;;;;;;;;;4710200;30;20048;-92
2022/04/26 17:40:10;;;;;;;3.65;2.80;;;;;;;;;;4710250;30;20407;-92
2022/04/26 17:42:36;;;;;;;6.57;3.50;;;;;;;;;;4710382;30;20045;-92
2022/04/26 17:45:06;;;;;;;3.67;2.85;;;;;;;;;;4708623;30;20514;-91
2022/04/26 17:47:36;;;;;;;5.18;3.00;;;;;;;;;;4709176;30;20142;-91
2022/04/26 17:50:03;;;;;;;5.55;3.28;;;;;;;;;;4709736;30;20548;-88
2022/04/26 17:52:30;;;;;;;5.18;3.17;;;;;;;;;;4709325;30;20124;-89
2022/04/26 17:57:42;;;;;;;7.57;3.03;;;;;;;;;;4723359;30;20495;-88
2022/04/26 18:00:09;;;;;;;5.40;2.67;;;;;;;;;;4725220;30;20124;-90
2022/04/26 18:02:37;;;;;;;7.13;2.92;;;;;;;;;;4710599;30;20120;-90
2022/04/26 18:05:03;;;;;;;6.45;2.70;;;;;;;;;;4744675;30;20087;-88
2022/04/26 18:07:30;;;;;;;3.30;2.33;;;;;;;;;;4742895;30;20064;-87
2022/04/26 18:09:56;;;;;;;6.15;2.78;;;;;;;;;;4728075;30;20060;-87
2022/04/26 18:12:22;;;;;;;3.28;2.67;;;;;;;;;;4742234;30;20078;-87
2022/04/26 18:14:48;;;;;;;3.20;2.35;;;;;;;;;;4741779;30;20056;-89
2022/04/26 18:17:15;;;;;;;5.53;2.70;;;;;;;;;;4741541;30;20129;-88
2022/04/26 18:19:41;;;;;;;3.75;2.70;;;;;;;;;;4726940;30;20048;-89
2022/04/26 18:22:07;;;;;;;7.07;2.38;;;;;;;;;;4742380;30;20116;-89
2022/04/26 18:24:33;;;;;;;3.63;2.08;;;;;;;;;;4742453;30;20044;-88
2022/04/26 18:27:00;;;;;;;4.43;2.55;;;;;;;;;;4741181;30;20060;-88
2022/04/26 18:29:26;;;;;;;6.20;2.85;;;;;;;;;;4727039;30;20091;-87
2022/04/26 18:31:53;;;;;;;8.45;3.00;;;;;;;;;;4741520;30;20086;-88
2022/04/26 18:34:20;;;;;;;4.43;3.03;;;;;;;;;;4726742;30;20056;-90
2022/04/26 18:36:50;;;;;;;11.13;3.47;;;;;;;;;;4742640;30;20048;-90
2022/04/26 18:39:16;;;;;;;14.13;2.92;;;;;;;;;;4726697;30;20153;-89
2022/04/26 18:41:43;;;;;;;6.63;3.40;;;;;;;;;;4741838;30;20408;-88
2022/04/26 18:44:17;;;;;;;7.85;4.35;;;;;;;;;;4727680;30;20079;-88
2022/04/26 18:46:44;;;;;;;5.20;2.90;;;;;;;;;;4727891;30;20187;-87
2022/04/26 18:49:12;;;;;;;10.88;2.67;;;;;;;;;;4727558;30;20052;-89
2022/04/26 18:51:39;;;;;;;10.32;2.63;;;;;;;;;;4727421;30;20131;-90
2022/04/26 18:54:05;;;;;;;11.15;3.05;;;;;;;;;;4740909;30;20063;-86
2022/04/26 18:56:35;;;;;;;7.93;3.13;;;;;;;;;;4725674;30;20495;-89
2022/04/26 18:59:01;;;;;;;4.45;3.03;;;;;;;;;;4724947;30;20052;-89
2022/04/26 19:01:30;;;;;;;12.90;2.92;;;;;;;;;;4726119;30;20391;-89
2022/04/26 19:04:03;;;;;;;5.35;3.17;;;;;;;;;;4739857;30;20052;-89
2022/04/26 19:06:30;;;;;;;6.15;2.95;;;;;;;;;;4724994;30;20154;-88
2022/04/26 19:08:56;;;;;;;7.78;2.75;;;;;;;;;;4739877;30;20055;-89
2022/04/26 19:14:07;;;;;;;5.20;2.53;;;;;;;;;;4739231;30;20511;-88